Airfield :
LOGIN :

Register | Disclaimer

   EN    FR    IT 

 










Legend :    VFR   Marginal VFR   IFR   Intensive IFR   Very Intensive IFR
Visi :
Ceiling :
>= 8 km
>= 3000ft
5 to 8 km
1000 to 3000 ft
1500m to 5 km
500 to 1000 ft
800 to 1500m
200 to 500 ft
< 800m
< 200 ft
Symbols :   Thunderstorms  Fog  Heavy snow  Heavy precipitations  Wind > 20 kt
SIGMETs :     Misc.  Thunderstorms  Icing  Turbulence  Mountain Waves  Volcanic Ashes






- Airport Elevation : 291 ft
- IATA code : ORY


LFPO - Paris-Orly

CURRENT METAR :
  • 110030Z 19009KT 9999 BKN032 06/04 Q1014 TEMPO 20012G22KT RA BKN012

EXPIRED METARs :
  • 110000Z 20010KT 9999 FEW014 BKN036 06/04 Q1015 TEMPO 20012G22KT RA BKN012
  • 102330Z 19010KT 9999 FEW014 BKN036 06/04 Q1015 TEMPO 20012KTG22KT 3000 RA BKN012
  • 102300Z 19012KT 9999 -RA SCT015 BKN037 BKN056 06/04 Q1015 TEMPO 19015G25KT
  • 102230Z 19011KT 9999 -RA BKN022 BKN043 07/03 Q1016 TEMPO 19015G25KT
  • 102200Z 20011KT 9999 BKN022 BKN043 07/03 Q1016 TEMPO 19015G25KT

TAF TAF LFPO
Valid from the 11 at 00:00 until the 12 at 06:00 UTC


102300Z 1100/1206 20010KT 9999 BKN040
TEMPO 1101/1110 20012G22KT 3000 RA BKN012
TEMPO 1117/1120 24015G25KT SHRA BKN020 BKN040CB
BECMG 1203/1206 BKN012
ATIS : +33 1 49 75 65 80



MET'MAP, your aeronautical weather chart ! - Copyright ORBIFLY December 2007 - Disclaimer

ORBIFLY MET'MAP TEAM :

Programming & Development : Alexandra Zaïnal
Concept & original design : Baudouin d'Aumeries
Assistance for programming : Marc-Olivier Méhu
Technical & hardware support : Manuel Goepfert

Contact : metmap@orbifly.com




SOURCES & CREDITS :

   NOAA